Time;durP1;ratioP1;P1;durP2;ratioP2;P2;SDS_P1;SDS_P2;PMS_P1;PMS_P2;Temp;Humidity;BMP_temperature;BMP_pressure;BME280_temperature;BME280_humidity;BME280_pressure;Samples;Min_cycle;Max_cycle;Signal;HPM_P1;HPM_P2
2022/04/22 00:02:25;;;;;;;;;16.75;12.75;;;;;13.89;50.39;100221.88;4950351;28;49725;-72
2022/04/22 00:04:50;;;;;;;;;12.25;12.25;;;;;13.67;50.50;100196.41;4950411;28;49793;-72
2022/04/22 00:07:15;;;;;;;;;12.75;12.75;;;;;13.60;50.52;100179.72;4950563;28;49731;-70
2022/04/22 00:09:41;;;;;;;;;14.00;12.00;;;;;13.84;51.10;100225.44;4950202;28;49761;-70
2022/04/22 00:12:07;;;;;;;;;9.25;9.00;;;;;13.83;50.95;100228.94;4950340;28;49980;-70
2022/04/22 00:14:32;;;;;;;;;13.50;12.75;;;;;13.81;51.03;100236.00;4950196;28;49748;-70
2022/04/22 00:16:58;;;;;;;;;17.00;13.50;;;;;13.78;51.48;100234.22;4950300;28;49677;-70
2022/04/22 00:19:23;;;;;;;;;11.00;11.00;;;;;13.75;51.93;100229.81;4950022;28;50047;-70
2022/04/22 00:21:48;;;;;;;;;16.00;13.25;;;;;13.73;51.36;100239.50;4950033;28;49721;-71
2022/04/22 00:24:16;;;;;;;;;9.00;9.00;;;;;13.70;51.44;100230.69;4950386;28;49792;-70
2022/04/22 00:26:41;;;;;;;;;11.50;10.50;;;;;13.70;51.88;100226.34;4950297;28;49870;-72
2022/04/22 00:29:07;;;;;;;;;12.50;10.75;;;;;13.49;52.49;100205.22;4949874;28;50435;-70
2022/04/22 00:31:33;;;;;;;;;10.50;7.75;;;;;13.57;52.40;100227.19;4949928;28;49617;-70
2022/04/22 00:33:58;;;;;;;;;7.00;7.00;;;;;13.27;52.98;100174.47;4950015;28;49524;-70
2022/04/22 00:36:24;;;;;;;;;10.00;10.00;;;;;13.29;53.10;100181.47;4950062;28;49800;-70
2022/04/22 00:38:49;;;;;;;;;12.75;10.25;;;;;13.52;52.84;100213.16;4949576;28;50641;-70
2022/04/22 00:41:15;;;;;;;;;9.75;8.00;;;;;13.48;52.92;100224.53;4949877;28;49978;-70
2022/04/22 00:43:43;;;;;;;;;12.50;10.75;;;;;13.45;53.39;100221.91;4949799;28;50009;-71
2022/04/22 00:46:08;;;;;;;;;9.25;9.25;;;;;13.44;53.29;100222.81;4950118;28;49673;-70
2022/04/22 00:48:34;;;;;;;;;12.75;11.75;;;;;13.40;53.55;100221.03;4949677;28;50304;-70
2022/04/22 00:50:59;;;;;;;;;11.50;11.50;;;;;13.38;53.69;100213.13;4949699;28;49909;-70
2022/04/22 00:53:25;;;;;;;;;8.00;8.00;;;;;13.36;53.98;100220.16;4949693;28;49590;-70
2022/04/22 00:55:51;;;;;;;;;10.00;9.00;;;;;13.38;54.20;100222.78;4949899;28;49852;-70
2022/04/22 00:58:16;;;;;;;;;9.50;7.75;;;;;13.23;54.36;100197.31;4949383;28;49913;-70
2022/04/22 01:00:42;;;;;;;;;13.00;10.25;;;;;13.32;54.82;100220.16;4949583;28;50315;-70
2022/04/22 01:03:08;;;;;;;;;10.50;10.50;;;;;13.25;54.48;100211.38;4949898;28;49855;-70
2022/04/22 01:11:03;;;;;;;;;10.25;10.25;;;;;13.23;54.51;100212.25;4949312;28;49741;-70
2022/04/22 01:13:29;;;;;;;;;10.25;9.25;;;;;13.05;54.75;100178.81;4949206;28;49778;-70
2022/04/22 01:15:56;;;;;;;;;11.00;9.75;;;;;13.21;54.69;100203.44;4968355;28;50121;-70
2022/04/22 01:18:21;;;;;;;;;11.75;8.50;;;;;13.16;54.69;100208.69;4967993;28;50642;-70
2022/04/22 01:20:47;;;;;;;;;10.00;10.00;;;;;12.99;54.46;100178.78;4968012;28;49882;-70
2022/04/22 01:23:13;;;;;;;;;7.50;7.50;;;;;13.12;54.82;100196.34;4968128;28;50334;-70
2022/04/22 01:25:38;;;;;;;;;6.00;6.00;;;;;13.13;55.02;100198.16;4968281;28;50129;-70
2022/04/22 01:28:04;;;;;;;;;9.00;9.00;;;;;13.05;54.99;100191.97;4967623;28;50255;-70
2022/04/22 01:30:29;;;;;;;;;10.00;8.75;;;;;13.08;55.04;100197.25;4967744;28;50089;-70
2022/04/22 01:32:56;;;;;;;;;11.75;11.00;;;;;13.06;55.28;100199.00;4966012;28;50008;-70
2022/04/22 01:35:25;;;;;;;;;9.75;8.75;;;;;12.85;55.34;100173.50;4949598;28;49803;-71
2022/04/22 01:37:51;;;;;;;;;15.00;12.00;;;;;12.84;55.91;100162.09;4949097;28;50429;-70
2022/04/22 01:40:17;;;;;;;;;9.75;7.50;;;;;12.95;55.44;100183.19;4949312;28;50056;-70
2022/04/22 01:42:43;;;;;;;;;13.25;8.00;;;;;12.99;55.39;100184.94;4949412;28;49752;-70
2022/04/22 01:45:12;;;;;;;;;9.75;9.25;;;;;12.99;55.32;100184.03;4949048;28;49860;-70
2022/04/22 01:47:37;;;;;;;;;10.50;9.75;;;;;12.96;55.56;100182.28;4963767;28;51660;-70
2022/04/22 01:50:03;;;;;;;;;14.75;12.00;;;;;12.82;56.03;100157.66;4948834;28;49866;-71
2022/04/22 01:52:29;;;;;;;;;10.00;9.00;;;;;12.85;56.25;100174.38;4949135;28;49884;-70
2022/04/22 01:54:56;;;;;;;;;10.25;9.25;;;;;12.92;55.68;100188.41;4949466;28;49721;-70
2022/04/22 01:57:22;;;;;;;;;12.00;10.00;;;;;12.82;55.82;100163.81;4948432;28;50453;-71
2022/04/22 01:59:48;;;;;;;;;10.75;10.50;;;;;12.89;56.19;100181.41;4948938;28;49835;-71
2022/04/22 02:02:15;;;;;;;;;11.00;10.00;;;;;12.87;56.08;100180.53;4949215;28;49849;-71
2022/04/22 02:04:41;;;;;;;;;12.75;10.25;;;;;12.85;56.15;100179.66;4949350;28;49820;-70
2022/04/22 02:07:07;;;;;;;;;13.75;13.25;;;;;12.83;56.21;100177.84;4948842;28;50029;-71
2022/04/22 02:09:32;;;;;;;;;12.50;11.00;;;;;12.81;55.68;100174.34;4948693;28;49901;-71
2022/04/22 02:11:58;;;;;;;;;10.75;9.75;;;;;12.70;55.91;100149.75;4948770;28;49734;-70
2022/04/22 02:14:25;;;;;;;;;11.25;11.00;;;;;12.75;56.07;100166.44;4948880;28;49681;-71
2022/04/22 02:16:51;;;;;;;;;16.00;12.00;;;;;12.62;55.83;100147.09;4948688;28;50505;-70
2022/04/22 02:19:17;;;;;;;;;10.50;9.50;;;;;12.59;56.05;100145.34;4948910;28;49853;-70
2022/04/22 02:21:43;;;;;;;;;13.25;11.00;;;;;12.69;56.06;100166.44;4948807;28;49713;-71
2022/04/22 02:24:09;;;;;;;;;10.75;10.00;;;;;12.70;56.10;100168.19;4967529;28;49687;-70
2022/04/22 02:28:31;;;;;;;;;11.75;10.50;;;;;12.65;56.47;100169.94;4947495;28;51527;-71
2022/04/22 02:29:20;;;;;;;;;10.00;9.75;;;;;12.66;56.42;100163.78;4948240;28;49995;-70
2022/04/22 02:31:46;;;;;;;;;13.50;12.00;;;;;12.65;56.61;100167.31;4948693;28;49827;-70
2022/04/22 02:34:12;;;;;;;;;12.00;12.00;;;;;12.55;56.39;100156.75;4948817;28;49874;-70
2022/04/22 02:36:37;;;;;;;;;10.75;9.75;;;;;12.58;56.80;100158.50;4948441;28;50968;-71
2022/04/22 02:39:03;;;;;;;;;14.25;9.00;;;;;12.51;56.89;100152.31;4948445;28;49929;-70
2022/04/22 02:46:56;;;;;;;;;13.00;12.75;;;;;12.51;57.35;100152.31;4947965;28;50175;-69
2022/04/22 02:49:21;;;;;;;;;9.00;9.00;;;;;12.51;57.03;100156.72;4948200;28;49767;-69
2022/04/22 02:51:47;;;;;;;;;8.50;8.50;;;;;12.33;57.44;100131.19;4948143;28;50020;-70
2022/04/22 02:54:12;;;;;;;;;12.75;11.00;;;;;12.46;57.44;100153.19;4962852;28;49977;-70
2022/04/22 02:56:38;;;;;;;;;14.00;12.25;;;;;12.33;57.81;100144.34;4966744;28;50439;-70
2022/04/22 02:59:05;;;;;;;;;9.50;9.50;;;;;12.42;57.50;100152.28;4966553;28;49702;-70
2022/04/22 03:01:31;;;;;;;;;13.50;10.75;;;;;12.11;57.75;100111.81;4966716;28;49863;-70
2022/04/22 03:03:56;;;;;;;;;14.50;13.00;;;;;12.35;57.41;100147.88;4966713;28;50026;-70
2022/04/22 03:06:24;;;;;;;;;9.75;8.75;;;;;12.18;57.78;100125.91;4966388;28;49962;-72
2022/04/22 03:08:49;;;;;;;;;12.50;11.00;;;;;11.93;57.37;100081.06;4966540;28;49605;-72
2022/04/22 03:11:21;;;;;;;;;10.75;9.75;;;;;12.32;57.25;100142.59;4969852;28;49887;-72
2022/04/22 03:13:50;;;;;;;;;9.00;8.00;;;;;12.24;57.49;100137.31;4969691;28;49843;-70
2022/04/22 03:16:19;;;;;;;;;10.50;10.50;;;;;12.27;57.60;100144.34;4969434;28;50745;-70
2022/04/22 03:18:44;;;;;;;;;10.50;10.00;;;;;12.26;57.38;100140.84;4969463;28;49743;-70
2022/04/22 03:21:10;;;;;;;;;12.00;10.00;;;;;12.10;57.73;100107.44;4969289;28;49834;-70
2022/04/22 03:23:35;;;;;;;;;7.25;7.25;;;;;12.08;57.80;100109.19;4969533;28;49762;-70
2022/04/22 03:26:00;;;;;;;;;10.00;10.00;;;;;12.04;57.75;100107.41;4969415;28;50005;-70
2022/04/22 03:28:26;;;;;;;;;10.75;10.00;;;;;12.24;57.81;100139.94;4969049;28;56352;-70
2022/04/22 03:30:51;;;;;;;;;17.25;14.75;;;;;12.24;58.04;100141.69;4969584;28;49814;-70
2022/04/22 03:33:17;;;;;;;;;9.25;9.25;;;;;12.20;57.96;100142.56;4969502;28;49875;-70
2022/04/22 03:35:43;;;;;;;;;12.00;12.00;;;;;12.06;57.83;100113.53;4969353;28;49751;-70
2022/04/22 03:38:11;;;;;;;;;14.00;13.75;;;;;12.14;58.21;100134.63;4969461;28;49788;-70
2022/04/22 03:40:36;;;;;;;;;17.00;15.00;;;;;12.11;58.42;100135.50;4969229;28;49776;-70
2022/04/22 03:43:02;;;;;;;;;26.75;24.75;;;;;11.99;58.37;100117.91;4969313;28;49702;-71
2022/04/22 03:45:28;;;;;;;;;34.75;33.75;;;;;12.02;58.73;100135.47;4969224;28;50269;-71
2022/04/22 03:47:54;;;;;;;;;41.75;37.75;;;;;11.96;58.97;100122.25;4969188;28;49918;-71
2022/04/22 03:50:19;;;;;;;;;41.75;37.00;;;;;12.00;58.83;100143.34;4968711;28;49869;-71
2022/04/22 03:52:44;;;;;;;;;50.00;43.50;;;;;11.79;58.72;100119.53;4969208;28;49905;-71
2022/04/22 03:55:10;;;;;;;;;51.00;42.25;;;;;11.85;59.10;100122.22;4968884;28;49891;-72
2022/04/22 04:00:19;;;;;;;;;60.25;47.25;;;;;11.80;59.73;100130.97;4969157;28;49780;-71
2022/04/22 04:02:44;;;;;;;;;57.00;45.75;;;;;11.77;59.81;100134.41;4969141;28;49635;-71
2022/04/22 04:05:10;;;;;;;;;56.75;45.50;;;;;11.60;60.08;100118.53;4968802;28;55614;-71
2022/04/22 04:07:35;;;;;;;;;59.50;46.50;;;;;11.72;60.20;100136.13;4969171;28;49729;-71
2022/04/22 04:18:12;;;;;;;;;68.00;53.25;;;;;11.63;60.50;100133.44;4968821;28;49786;-71
2022/04/22 04:23:22;;;;;;;;;66.25;50.75;;;;;11.60;61.34;100125.56;4969170;28;49798;-72
2022/04/22 04:25:47;;;;;;;;;56.00;46.00;;;;;11.53;61.62;100115.84;4968750;28;49645;-71
2022/04/22 04:28:15;;;;;;;;;45.50;39.25;;;;;11.55;61.73;100119.38;4968487;28;49836;-71
2022/04/22 04:30:43;;;;;;;;;57.00;47.00;;;;;11.45;61.50;100113.16;4968542;28;49740;-71
2022/04/22 04:33:08;;;;;;;;;56.50;45.50;;;;;11.37;62.06;100102.59;4968830;28;50863;-71
2022/04/22 04:35:35;;;;;;;;;51.50;43.75;;;;;11.49;62.32;100121.97;4968367;28;51403;-71
2022/04/22 04:38:01;;;;;;;;;54.75;45.00;;;;;11.38;61.53;100100.84;4968110;28;49661;-72
2022/04/22 04:40:26;;;;;;;;;51.75;42.50;;;;;11.36;61.55;100105.22;4968576;28;49812;-71
2022/04/22 04:42:52;;;;;;;;;55.25;43.50;;;;;11.46;62.27;100125.44;4968704;28;49839;-72
2022/04/22 04:45:18;;;;;;;;;44.00;38.25;;;;;11.42;62.13;100124.56;4968279;28;50790;-72
2022/04/22 04:47:44;;;;;;;;;44.00;40.00;;;;;11.42;62.21;100121.03;4968435;28;49742;-71
2022/04/22 04:50:10;;;;;;;;;43.00;37.25;;;;;11.30;62.40;100099.94;4968289;28;49872;-71
2022/04/22 04:52:37;;;;;;;;;44.75;37.25;;;;;11.24;62.49;100086.75;4968309;28;50014;-71
2022/04/22 04:55:04;;;;;;;;;44.50;38.00;;;;;11.35;62.25;100109.59;4968217;28;49915;-71
2022/04/22 04:57:30;;;;;;;;;50.50;43.25;;;;;11.21;62.96;100086.75;4968510;28;49982;-70
2022/04/22 04:59:55;;;;;;;;;45.25;40.25;;;;;11.32;62.81;100100.81;4968224;28;49786;-71
2022/04/22 05:02:20;;;;;;;;;51.00;41.00;;;;;11.24;63.04;100090.25;4968639;28;49942;-71
2022/04/22 05:04:46;;;;;;;;;44.50;39.50;;;;;11.16;63.72;100094.56;4968183;28;50395;-72
2022/04/22 05:07:11;;;;;;;;;42.00;38.75;;;;;11.08;63.47;100073.47;4968060;28;50205;-72
2022/04/22 05:09:36;;;;;;;;;42.25;38.25;;;;;11.32;63.70;100113.97;4968093;28;49897;-71
2022/04/22 05:12:02;;;;;;;;;50.50;42.75;;;;;11.21;63.64;100092.88;4968003;28;49759;-71
2022/04/22 05:14:27;;;;;;;;;45.00;40.75;;;;;11.32;63.55;100111.34;4966617;28;51454;-71
2022/04/22 05:16:54;;;;;;;;;56.25;43.00;;;;;11.16;63.48;100077.06;4968077;28;49846;-71
2022/04/22 05:19:21;;;;;;;;;42.25;38.00;;;;;11.10;63.96;100068.28;4967104;28;49653;-71
2022/04/22 05:21:47;;;;;;;;;44.25;37.50;;;;;11.29;63.94;100093.81;4969449;28;50121;-71
2022/04/22 05:24:12;;;;;;;;;44.25;37.50;;;;;11.29;64.55;100098.16;4949072;28;49887;-72
2022/04/22 05:26:38;;;;;;;;;56.25;44.75;;;;;11.29;64.45;100090.28;4948969;28;56028;-71
2022/04/22 05:29:03;;;;;;;;;53.00;44.00;;;;;11.20;64.50;100084.97;4949397;28;49736;-71
2022/04/22 05:34:13;;;;;;;;;59.25;47.00;;;;;11.32;64.70;100106.09;4949143;28;49987;-70
2022/04/22 05:36:38;;;;;;;;;57.25;47.00;;;;;11.31;64.72;100105.19;4949423;28;49881;-69
2022/04/22 05:39:07;;;;;;;;;51.50;42.00;;;;;11.29;65.20;100101.69;4949339;28;49806;-70
2022/04/22 05:41:32;;;;;;;;;55.50;43.50;;;;;11.30;65.39;100103.44;4954183;28;49200;-75
2022/04/22 05:43:58;;;;;;;;;50.25;39.50;;;;;10.97;64.98;100034.88;4965170;28;51569;-75
2022/04/22 05:46:23;;;;;;;;;47.00;38.25;;;;;11.38;65.28;100106.97;4967636;28;49797;-68
2022/04/22 05:48:48;;;;;;;;;64.25;50.75;;;;;11.38;65.03;100114.00;4967611;28;50084;-68
2022/04/22 05:51:15;;;;;;;;;62.75;49.75;;;;;11.39;65.60;100110.53;4967019;28;50027;-70
2022/04/22 05:53:44;;;;;;;;;66.00;53.50;;;;;11.36;65.42;100102.59;4967674;28;49595;-67
2022/04/22 05:56:09;;;;;;;;;63.50;51.00;;;;;11.43;64.98;100114.91;4967661;28;49790;-65
2022/04/22 05:58:35;;;;;;;;;63.25;49.00;;;;;11.38;65.10;100101.72;4967817;28;50246;-71
2022/04/22 06:01:00;;;;;;;;;66.00;52.50;;;;;11.41;65.34;100120.16;4967460;28;49882;-69
2022/04/22 06:03:26;;;;;;;;;65.50;48.50;;;;;11.41;65.27;100111.41;4967263;28;50800;-69
2022/04/22 06:05:51;;;;;;;;;63.25;50.25;;;;;11.39;65.06;100108.78;4967469;28;49638;-72
2022/04/22 06:11:01;;;;;;;;;43.50;37.25;;;;;11.55;64.50;100122.00;4950122;28;49864;-72
2022/04/22 06:13:26;;;;;;;;;51.75;44.00;;;;;11.14;64.79;100046.41;4953812;28;49578;-71
2022/04/22 06:15:52;;;;;;;;;51.50;42.75;;;;;11.58;64.59;100122.00;4953397;28;49738;-67
2022/04/22 06:18:17;;;;;;;;;47.50;38.00;;;;;11.66;64.38;100126.44;4948695;28;49691;-68
2022/04/22 06:20:42;;;;;;;;;41.75;36.75;;;;;11.68;64.24;100124.72;4948723;28;50251;-69
2022/04/22 06:23:08;;;;;;;;;46.25;37.25;;;;;11.75;64.24;100121.25;4948333;28;51838;-68
2022/04/22 06:25:33;;;;;;;;;47.25;41.50;;;;;11.53;64.04;100066.78;4948797;28;49757;-74
2022/04/22 06:27:59;;;;;;;;;37.25;34.00;;;;;11.83;64.07;100107.31;4948651;28;49764;-70
2022/04/22 06:30:24;;;;;;;;;32.00;30.25;;;;;11.91;63.79;100108.22;4948657;28;49565;-68
2022/04/22 06:32:52;;;;;;;;;37.75;34.50;;;;;11.97;63.51;100109.16;4949786;28;50881;-67
2022/04/22 06:35:19;;;;;;;;;29.50;26.25;;;;;11.87;63.49;100098.53;4948439;28;49664;-63
2022/04/22 06:37:46;;;;;;;;;38.25;34.25;;;;;12.00;63.37;100106.53;4948234;28;50096;-63
2022/04/22 06:45:47;;;;;;;;;34.50;32.00;;;;;11.98;63.18;100102.13;4961127;28;49870;-65
2022/04/22 06:48:17;;;;;;;;;35.25;31.50;;;;;11.98;63.63;100089.84;4957962;28;50023;-63
2022/04/22 06:50:45;;;;;;;;;29.75;26.00;;;;;12.12;63.05;100103.06;4961622;28;49638;-63
2022/04/22 06:53:17;;;;;;;;;34.00;25.25;;;;;12.05;63.03;100085.47;4957472;28;49890;-64
2022/04/22 06:55:44;;;;;;;;;31.50;29.75;;;;;12.21;62.79;100113.63;4951020;28;49715;-64
2022/04/22 06:58:12;;;;;;;;;36.50;33.50;;;;;12.23;62.67;100106.59;4951169;28;49773;-64
2022/04/22 07:00:42;;;;;;;;;22.50;20.50;;;;;12.27;63.15;100111.03;4951124;28;49844;-66
2022/04/22 07:03:08;;;;;;;;;28.75;27.50;;;;;12.44;63.27;100118.06;4951787;28;51774;-64
2022/04/22 07:05:35;;;;;;;;;30.00;26.00;;;;;12.45;62.66;100111.94;4955118;28;49940;-74
2022/04/22 07:08:02;;;;;;;;;29.75;28.50;;;;;12.46;62.70;100109.31;4955161;28;49862;-69
2022/04/22 07:10:29;;;;;;;;;25.00;23.00;;;;;12.60;62.34;100112.84;4998640;28;50227;-67
2022/04/22 07:12:57;;;;;;;;;27.50;23.00;;;;;12.76;61.60;100107.63;4962631;28;50604;-70
2022/04/22 07:15:22;;;;;;;;;29.50;27.00;;;;;12.68;61.37;100076.00;4955514;28;49778;-72
2022/04/22 07:17:48;;;;;;;;;23.25;21.25;;;;;12.76;60.74;100081.28;4952016;28;49717;-73
2022/04/22 07:20:13;;;;;;;;;23.25;23.25;;;;;12.59;61.22;100055.81;4951039;28;50242;-73
2022/04/22 07:22:40;;;;;;;;;24.75;22.25;;;;;12.80;61.49;100083.91;4952539;28;50456;-71
2022/04/22 07:25:08;;;;;;;;;22.00;21.75;;;;;12.90;61.33;100077.78;4969238;28;49834;-72
2022/04/22 07:27:36;;;;;;;;;24.50;22.25;;;;;13.00;61.05;100090.94;4971904;28;49811;-71
2022/04/22 07:30:10;;;;;;;;;22.00;21.75;;;;;12.83;60.29;100061.97;4961864;28;49714;-72
2022/04/22 07:32:37;;;;;;;;;21.50;20.50;;;;;12.85;60.41;100047.94;4949195;28;50047;-72
2022/04/22 07:35:04;;;;;;;;;21.75;21.75;;;;;13.07;60.20;100080.41;4950799;28;49825;-71
2022/04/22 07:37:30;;;;;;;;;19.75;19.00;;;;;13.21;59.67;100083.06;4956710;28;49675;-73
2022/04/22 07:39:55;;;;;;;;;19.75;18.00;;;;;13.36;58.96;100088.34;4951549;28;49694;-71
2022/04/22 07:42:21;;;;;;;;;19.75;16.25;;;;;13.47;59.01;100083.03;4965513;28;51662;-71
2022/04/22 07:47:35;;;;;;;;;20.50;17.75;;;;;13.50;58.58;100051.38;4962516;28;49717;-70
2022/04/22 07:50:05;;;;;;;;;18.00;17.25;;;;;13.74;57.83;100082.09;4969020;28;49860;-71
2022/04/22 07:52:35;;;;;;;;;18.75;17.75;;;;;13.80;56.66;100078.56;4993401;28;50780;-73
2022/04/22 07:55:01;;;;;;;;;16.75;13.00;;;;;13.63;56.76;100045.22;4986708;28;49936;-73
2022/04/22 07:57:28;;;;;;;;;15.50;15.50;;;;;13.86;56.28;100081.19;4951544;28;49923;-73
2022/04/22 07:59:53;;;;;;;;;13.50;12.75;;;;;13.81;56.01;100062.75;4973131;28;49775;-71
2022/04/22 08:02:19;;;;;;;;;17.50;17.50;;;;;13.82;55.86;100059.22;4962953;28;50346;-69
2022/04/22 08:04:44;;;;;;;;;20.75;17.50;;;;;13.92;56.34;100074.13;4967683;28;49725;-76
2022/04/22 08:07:10;;;;;;;;;17.75;16.25;;;;;14.06;55.87;100078.47;4952124;28;49763;-70
2022/04/22 08:09:35;;;;;;;;;21.50;19.25;;;;;14.00;55.38;100064.44;4961355;28;49824;-69
2022/04/22 08:12:01;;;;;;;;;16.00;14.25;;;;;14.08;55.43;100072.28;4979872;28;50244;-70
2022/04/22 08:14:27;;;;;;;;;18.50;16.25;;;;;14.02;54.81;100065.31;4949473;28;49741;-69
2022/04/22 08:16:54;;;;;;;;;18.75;14.50;;;;;14.22;54.68;100090.72;4953724;28;49851;-66
2022/04/22 08:19:20;;;;;;;;;15.50;14.00;;;;;14.17;53.95;100090.72;4953323;28;49792;-66
2022/04/22 08:21:46;;;;;;;;;19.00;16.00;;;;;14.31;53.31;100085.41;4949213;28;50449;-68
2022/04/22 08:24:11;;;;;;;;;13.00;12.00;;;;;14.37;53.60;100066.88;4950199;28;49814;-67
2022/04/22 08:26:37;;;;;;;;;19.00;16.25;;;;;14.52;53.18;100076.50;4950535;28;50263;-67
2022/04/22 08:29:03;;;;;;;;;13.25;12.75;;;;;14.58;53.71;100073.84;4954801;28;50017;-65
2022/04/22 08:31:28;;;;;;;;;18.75;18.75;;;;;14.60;53.33;100074.69;4949544;28;50023;-66
2022/04/22 08:33:56;;;;;;;;;17.00;15.00;;;;;14.62;52.83;100072.03;4952270;28;49722;-67
2022/04/22 08:36:22;;;;;;;;;17.00;17.00;;;;;14.58;52.63;100073.84;4951262;28;49955;-69
2022/04/22 08:38:47;;;;;;;;;16.00;14.50;;;;;14.69;51.61;100061.44;4950794;28;50013;-66
2022/04/22 08:41:15;;;;;;;;;20.25;17.75;;;;;14.74;51.70;100064.91;4952102;28;49963;-71
2022/04/22 08:43:40;;;;;;;;;17.25;14.25;;;;;14.70;51.96;100046.47;4965782;28;49628;-71
2022/04/22 08:49:58;;;;;;;;;10.50;9.75;;;;;14.69;51.66;100042.94;4955847;28;49841;-69
2022/04/22 08:51:44;;;;;;;;;11.25;11.25;;;;;14.85;50.16;100054.25;4965167;28;50166;-69
2022/04/22 08:54:12;;;;;;;;;12.75;11.25;;;;;14.94;49.49;100054.19;4983351;28;49848;-68
2022/04/22 08:56:39;;;;;;;;;12.00;12.00;;;;;15.07;49.11;100044.41;4951976;28;49809;-68
2022/04/22 08:59:04;;;;;;;;;13.25;13.25;;;;;15.11;49.62;100047.00;4951885;28;49765;-68
2022/04/22 09:01:29;;;;;;;;;13.25;13.25;;;;;15.21;47.87;100052.19;4948961;28;50674;-68
2022/04/22 09:03:55;;;;;;;;;8.25;8.25;;;;;15.30;47.46;100046.81;4952270;28;49756;-68
2022/04/22 09:06:23;;;;;;;;;13.00;9.25;;;;;15.29;47.35;100053.88;4949127;28;49738;-69
2022/04/22 09:08:50;;;;;;;;;15.00;12.75;;;;;15.25;47.88;100036.31;4950001;28;50070;-68
2022/04/22 09:11:16;;;;;;;;;11.25;11.25;;;;;15.36;48.11;100029.13;4948955;28;49904;-70
2022/04/22 09:13:41;;;;;;;;;11.50;11.50;;;;;15.41;47.15;100048.44;4950794;28;49657;-70
2022/04/22 09:16:08;;;;;;;;;13.25;13.25;;;;;15.31;47.03;100038.00;4949683;28;49836;-71
2022/04/22 09:18:37;;;;;;;;;11.50;10.25;;;;;15.31;46.78;100033.56;4948843;28;50166;-70
2022/04/22 09:21:06;;;;;;;;;12.00;12.00;;;;;15.42;47.30;100042.28;4948321;28;50546;-70
2022/04/22 09:23:32;;;;;;;;;15.50;13.25;;;;;15.45;47.81;100038.75;4952682;28;49721;-69
2022/04/22 09:25:58;;;;;;;;;15.75;14.25;;;;;15.38;47.55;100029.97;4949398;28;49828;-70
2022/04/22 09:28:23;;;;;;;;;13.50;11.75;;;;;15.48;46.80;100035.19;4949436;28;49814;-70
2022/04/22 09:31:15;;;;;;;;;10.25;10.25;;;;;15.50;45.84;100036.03;4953126;28;50576;-69
2022/04/22 09:33:44;;;;;;;;;15.00;10.75;;;;;15.58;46.37;100036.81;4959919;28;49700;-68
2022/04/22 09:45:07;;;;;;;;;12.00;9.25;;;;;15.72;45.47;100019.03;4955890;28;49911;-69
2022/04/22 09:47:34;;;;;;;;;12.00;11.50;;;;;15.67;46.21;99994.44;4975490;28;49905;-69
2022/04/22 09:50:05;;;;;;;;;13.50;12.50;;;;;15.68;45.87;99998.81;4950695;28;50004;-68
2022/04/22 09:52:34;;;;;;;;;12.25;12.00;;;;;15.94;45.97;100033.78;4947929;28;51650;-68
2022/04/22 09:55:02;;;;;;;;;10.00;10.00;;;;;15.96;45.96;100020.53;4949773;28;49729;-69
2022/04/22 09:57:50;;;;;;;;;11.50;9.00;;;;;16.09;44.76;100030.03;4949065;28;49893;-68
2022/04/22 10:00:16;;;;;;;;;9.25;8.75;;;;;16.15;43.58;100018.50;4948738;28;49617;-69
2022/04/22 10:02:43;;;;;;;;;10.00;10.00;;;;;16.11;44.50;100001.78;4965125;28;49846;-76
2022/04/22 10:05:11;;;;;;;;;9.75;9.75;;;;;15.95;44.02;99987.88;4969342;28;49861;-77
2022/04/22 10:07:36;;;;;;;;;9.75;9.50;;;;;16.30;43.70;100019.16;4976898;28;49813;-70
2022/04/22 10:10:03;;;;;;;;;7.50;6.75;;;;;16.23;43.99;100009.56;4971154;28;49619;-69
2022/04/22 10:12:30;;;;;;;;;7.25;7.25;;;;;16.26;44.25;100011.28;4965902;28;51009;-70
2022/04/22 10:14:57;;;;;;;;;4.75;4.75;;;;;16.27;42.65;100016.56;4973574;28;49894;-71
2022/04/22 10:17:23;;;;;;;;;8.75;8.00;;;;;16.29;42.03;100004.16;4980010;28;50037;-70
2022/04/22 10:19:49;;;;;;;;;7.25;7.00;;;;;16.25;42.79;100002.47;4971524;28;49967;-67
2022/04/22 10:22:17;;;;;;;;;5.50;5.50;;;;;16.30;42.37;99960.00;4954188;28;51553;-75
2022/04/22 10:24:43;;;;;;;;;8.00;8.00;;;;;16.64;42.31;100002.75;4951709;28;49703;-72
2022/04/22 10:27:10;;;;;;;;;13.75;11.00;;;;;16.64;43.14;99986.00;4954253;28;49933;-72
2022/04/22 10:29:40;;;;;;;;;8.50;8.50;;;;;16.68;42.37;99971.78;4971677;28;49936;-76
2022/04/22 10:32:06;;;;;;;;;9.50;9.00;;;;;16.78;42.65;99987.53;4951308;28;50599;-72
2022/04/22 10:34:43;;;;;;;;;9.25;8.75;;;;;16.78;41.09;99984.00;4951389;28;49712;-72
2022/04/22 10:37:19;;;;;;;;;11.75;11.75;;;;;16.57;41.25;99953.41;4951388;28;49727;-72
2022/04/22 10:39:51;;;;;;;;;9.50;7.50;;;;;16.62;41.74;99993.97;4952462;28;49951;-71
2022/04/22 10:42:16;;;;;;;;;10.50;8.75;;;;;16.46;41.65;99943.00;4952925;28;51627;-71
2022/04/22 10:47:51;;;;;;;;;8.00;8.00;;;;;16.79;41.49;99983.09;5050485;28;50097;-69
2022/04/22 10:50:41;;;;;;;;;8.25;8.25;;;;;16.81;41.60;99979.53;5049776;28;49903;-69
2022/04/22 10:53:09;;;;;;;;;21.75;14.00;;;;;16.89;40.94;99990.03;4988103;28;50384;-71
2022/04/22 10:55:37;;;;;;;;;8.25;8.25;;;;;16.92;41.01;99982.00;4951202;28;49731;-70
2022/04/22 10:58:20;;;;;;;;;10.00;7.75;;;;;16.92;40.86;99975.84;4951336;28;49677;-67
2022/04/22 11:00:48;;;;;;;;;7.25;7.25;;;;;16.90;41.01;99965.25;4965230;28;49836;-70
2022/04/22 11:03:18;;;;;;;;;11.00;8.25;;;;;16.98;41.27;99975.72;4969554;28;50517;-69
2022/04/22 11:05:46;;;;;;;;;9.75;9.50;;;;;16.97;41.29;99968.66;4969967;28;50016;-71
2022/04/22 11:08:30;;;;;;;;;11.25;8.00;;;;;17.07;40.91;99965.81;4969759;28;49719;-70
2022/04/22 11:10:55;;;;;;;;;7.00;7.00;;;;;17.07;40.56;99962.28;4977585;28;49825;-72
2022/04/22 11:13:38;;;;;;;;;8.50;7.75;;;;;17.05;40.75;99958.78;4985539;28;50321;-72
2022/04/22 11:16:08;;;;;;;;;6.00;6.00;;;;;17.07;40.94;99970.25;4985310;28;49223;-73
2022/04/22 11:18:35;;;;;;;;;8.00;8.00;;;;;17.08;41.27;99956.97;4986571;28;49468;-73
2022/04/22 11:21:02;;;;;;;;;8.00;8.00;;;;;16.82;40.42;99903.56;4972432;28;49381;-72
2022/04/22 11:23:36;;;;;;;;;7.00;7.00;;;;;17.23;40.70;99961.09;4977388;28;49918;-72
2022/04/22 11:26:02;;;;;;;;;9.75;9.25;;;;;17.32;39.85;99966.22;4962536;28;50239;-73
2022/04/22 11:28:32;;;;;;;;;6.75;5.50;;;;;17.26;40.76;99942.47;4961406;28;49760;-74
2022/04/22 11:31:02;;;;;;;;;9.50;7.25;;;;;17.28;40.01;99955.72;4960775;28;50294;-73
2022/04/22 11:33:35;;;;;;;;;9.25;9.25;;;;;17.31;40.04;99956.53;4968582;28;49784;-74
2022/04/22 11:36:03;;;;;;;;;4.00;4.00;;;;;17.25;39.62;99950.47;4960051;28;49822;-76
2022/04/22 11:38:31;;;;;;;;;9.00;8.50;;;;;17.01;40.73;99906.72;4950924;28;49811;-76
2022/04/22 11:40:56;;;;;;;;;9.00;9.00;;;;;17.32;40.09;99944.13;4966181;28;50125;-81
2022/04/22 11:43:22;;;;;;;;;9.25;9.25;;;;;17.33;40.09;99954.72;4963522;28;51465;-77
2022/04/22 11:45:49;;;;;;;;;5.00;5.00;;;;;17.34;40.40;99956.47;4962602;28;50249;-74
2022/04/22 11:48:22;;;;;;;;;7.00;6.00;;;;;17.31;39.59;99955.66;4970805;28;49895;-73
2022/04/22 11:50:47;;;;;;;;;3.75;3.00;;;;;17.09;39.29;99907.47;4964364;28;49705;-74
2022/04/22 11:53:18;;;;;;;;;6.25;6.25;;;;;17.21;39.69;99901.03;4954743;28;49871;-76
2022/04/22 11:55:47;;;;;;;;;6.50;6.25;;;;;17.57;38.80;99942.75;4950567;28;49672;-78
2022/04/22 11:58:15;;;;;;;;;4.00;4.00;;;;;17.64;39.06;99930.19;4951074;28;50003;-73
2022/04/22 12:06:19;;;;;;;;;8.75;6.00;;;;;17.58;38.93;99939.19;4950215;28;49954;-77
2022/04/22 12:08:50;;;;;;;;;7.00;7.00;;;;;17.51;38.37;99940.22;4959194;28;49877;-76
2022/04/22 12:11:16;;;;;;;;;7.25;6.50;;;;;17.49;39.24;99925.22;4951932;28;49615;-75
2022/04/22 12:13:41;;;;;;;;;8.00;5.75;;;;;17.53;38.59;99919.81;4950485;28;50761;-75